sensor_id;sensor_type;location;lat;lon;timestamp;temperature;humidity
70300;HTU21D;57704;51.112;5.878;2023-07-29T00:01:47;21.58;75.99
70300;HTU21D;57704;51.112;5.878;2023-07-29T00:04:15;21.59;75.89
70300;HTU21D;57704;51.112;5.878;2023-07-29T00:06:41;21.58;75.90
70300;HTU21D;57704;51.112;5.878;2023-07-29T00:09:09;21.55;75.95
70300;HTU21D;57704;51.112;5.878;2023-07-29T00:11:35;21.58;75.99
70300;HTU21D;57704;51.112;5.878;2023-07-29T00:14:02;21.58;75.97
70300;HTU21D;57704;51.112;5.878;2023-07-29T00:16:30;21.57;76.04
70300;HTU21D;57704;51.112;5.878;2023-07-29T00:18:56;21.57;76.12
70300;HTU21D;57704;51.112;5.878;2023-07-29T00:21:22;21.60;76.16
70300;HTU21D;57704;51.112;5.878;2023-07-29T00:23:53;21.62;76.08
70300;HTU21D;57704;51.112;5.878;2023-07-29T00:26:30;21.62;76.15
70300;HTU21D;57704;51.112;5.878;2023-07-29T00:28:58;21.62;76.12
70300;HTU21D;57704;51.112;5.878;2023-07-29T00:31:27;21.61;76.20
70300;HTU21D;57704;51.112;5.878;2023-07-29T00:33:56;21.59;76.29
70300;HTU21D;57704;51.112;5.878;2023-07-29T00:36:24;21.63;76.23
70300;HTU21D;57704;51.112;5.878;2023-07-29T00:38:50;21.62;76.19
70300;HTU21D;57704;51.112;5.878;2023-07-29T00:41:22;21.63;76.18
70300;HTU21D;57704;51.112;5.878;2023-07-29T00:43:50;21.66;76.14
70300;HTU21D;57704;51.112;5.878;2023-07-29T00:46:17;21.68;76.08
70300;HTU21D;57704;51.112;5.878;2023-07-29T00:48:46;21.65;76.14
70300;HTU21D;57704;51.112;5.878;2023-07-29T00:51:13;21.61;76.29
70300;HTU21D;57704;51.112;5.878;2023-07-29T00:53:41;21.58;76.54
70300;HTU21D;57704;51.112;5.878;2023-07-29T00:56:15;21.52;76.82
70300;HTU21D;57704;51.112;5.878;2023-07-29T00:58:46;21.36;77.42
70300;HTU21D;57704;51.112;5.878;2023-07-29T01:01:12;21.24;78.02
70300;HTU21D;57704;51.112;5.878;2023-07-29T01:03:44;21.13;78.61
70300;HTU21D;57704;51.112;5.878;2023-07-29T01:06:29;21.06;79.11
70300;HTU21D;57704;51.112;5.878;2023-07-29T01:09:09;21.02;79.41
70300;HTU21D;57704;51.112;5.878;2023-07-29T01:11:48;20.99;79.66
70300;HTU21D;57704;51.112;5.878;2023-07-29T01:14:46;21.02;79.64
70300;HTU21D;57704;51.112;5.878;2023-07-29T01:17:23;21.03;79.62
70300;HTU21D;57704;51.112;5.878;2023-07-29T01:20:07;21.03;79.81
70300;HTU21D;57704;51.112;5.878;2023-07-29T01:22:37;20.99;79.94
70300;HTU21D;57704;51.112;5.878;2023-07-29T01:25:04;20.94;80.06
70300;HTU21D;57704;51.112;5.878;2023-07-29T01:27:30;20.92;80.28
70300;HTU21D;57704;51.112;5.878;2023-07-29T01:30:05;20.96;80.27
70300;HTU21D;57704;51.112;5.878;2023-07-29T01:35:37;21.03;80.14
70300;HTU21D;57704;51.112;5.878;2023-07-29T01:38:35;21.07;80.02
70300;HTU21D;57704;51.112;5.878;2023-07-29T01:41:02;21.06;80.08
70300;HTU21D;57704;51.112;5.878;2023-07-29T01:43:31;21.00;80.18
70300;HTU21D;57704;51.112;5.878;2023-07-29T01:46:00;21.01;80.34
70300;HTU21D;57704;51.112;5.878;2023-07-29T01:48:29;21.01;80.26
70300;HTU21D;57704;51.112;5.878;2023-07-29T01:50:57;21.00;80.35
70300;HTU21D;57704;51.112;5.878;2023-07-29T01:53:23;20.98;80.52
70300;HTU21D;57704;51.112;5.878;2023-07-29T01:55:53;20.95;80.84
70300;HTU21D;57704;51.112;5.878;2023-07-29T01:58:19;20.88;81.01
70300;HTU21D;57704;51.112;5.878;2023-07-29T02:00:48;20.85;81.38
70300;HTU21D;57704;51.112;5.878;2023-07-29T02:03:14;20.76;81.76
70300;HTU21D;57704;51.112;5.878;2023-07-29T02:05:41;20.66;81.94
70300;HTU21D;57704;51.112;5.878;2023-07-29T02:08:10;20.56;82.56
70300;HTU21D;57704;51.112;5.878;2023-07-29T02:10:37;20.53;82.81
70300;HTU21D;57704;51.112;5.878;2023-07-29T02:13:05;20.55;82.84
70300;HTU21D;57704;51.112;5.878;2023-07-29T02:15:31;20.55;82.81
70300;HTU21D;57704;51.112;5.878;2023-07-29T02:18:02;20.57;82.73
70300;HTU21D;57704;51.112;5.878;2023-07-29T02:20:29;20.54;83.01
70300;HTU21D;57704;51.112;5.878;2023-07-29T02:22:57;20.46;83.53
70300;HTU21D;57704;51.112;5.878;2023-07-29T02:25:23;20.43;83.66
70300;HTU21D;57704;51.112;5.878;2023-07-29T02:27:49;20.41;83.78
70300;HTU21D;57704;51.112;5.878;2023-07-29T02:30:16;20.40;84.09
70300;HTU21D;57704;51.112;5.878;2023-07-29T02:32:42;20.44;84.03
70300;HTU21D;57704;51.112;5.878;2023-07-29T02:35:15;20.45;83.90
70300;HTU21D;57704;51.112;5.878;2023-07-29T02:37:41;20.43;83.74
70300;HTU21D;57704;51.112;5.878;2023-07-29T02:40:08;20.39;84.16
70300;HTU21D;57704;51.112;5.878;2023-07-29T02:42:34;20.44;84.21
70300;HTU21D;57704;51.112;5.878;2023-07-29T02:45:03;20.47;83.97
70300;HTU21D;57704;51.112;5.878;2023-07-29T02:47:30;20.47;83.91
70300;HTU21D;57704;51.112;5.878;2023-07-29T02:49:56;20.46;83.81
70300;HTU21D;57704;51.112;5.878;2023-07-29T02:52:22;20.41;83.43
70300;HTU21D;57704;51.112;5.878;2023-07-29T02:54:50;20.34;83.93
70300;HTU21D;57704;51.112;5.878;2023-07-29T02:57:16;20.32;83.74
70300;HTU21D;57704;51.112;5.878;2023-07-29T02:59:43;20.28;83.63
70300;HTU21D;57704;51.112;5.878;2023-07-29T03:02:12;20.20;83.41
70300;HTU21D;57704;51.112;5.878;2023-07-29T03:04:38;20.15;83.49
70300;HTU21D;57704;51.112;5.878;2023-07-29T03:07:06;20.12;83.45
70300;HTU21D;57704;51.112;5.878;2023-07-29T03:09:32;20.06;83.42
70300;HTU21D;57704;51.112;5.878;2023-07-29T03:11:59;20.04;83.22
70300;HTU21D;57704;51.112;5.878;2023-07-29T03:14:25;19.98;83.23
70300;HTU21D;57704;51.112;5.878;2023-07-29T03:16:53;19.92;83.13
70300;HTU21D;57704;51.112;5.878;2023-07-29T03:19:19;19.89;83.14
70300;HTU21D;57704;51.112;5.878;2023-07-29T03:21:46;19.89;82.91
70300;HTU21D;57704;51.112;5.878;2023-07-29T03:24:12;19.87;82.87
70300;HTU21D;57704;51.112;5.878;2023-07-29T03:26:38;19.84;82.72
70300;HTU21D;57704;51.112;5.878;2023-07-29T03:29:34;19.79;82.51
70300;HTU21D;57704;51.112;5.878;2023-07-29T03:32:22;19.70;82.58
70300;HTU21D;57704;51.112;5.878;2023-07-29T03:34:48;19.67;82.42
70300;HTU21D;57704;51.112;5.878;2023-07-29T03:37:14;19.65;82.42
70300;HTU21D;57704;51.112;5.878;2023-07-29T03:39:42;19.65;82.44
70300;HTU21D;57704;51.112;5.878;2023-07-29T03:42:10;19.67;82.31
70300;HTU21D;57704;51.112;5.878;2023-07-29T03:44:36;19.67;82.19
70300;HTU21D;57704;51.112;5.878;2023-07-29T03:47:05;19.65;81.94
70300;HTU21D;57704;51.112;5.878;2023-07-29T03:49:37;19.60;81.82
70300;HTU21D;57704;51.112;5.878;2023-07-29T03:52:05;19.56;81.83
70300;HTU21D;57704;51.112;5.878;2023-07-29T03:54:31;19.52;81.99
70300;HTU21D;57704;51.112;5.878;2023-07-29T03:56:57;19.50;82.04
70300;HTU21D;57704;51.112;5.878;2023-07-29T03:59:23;19.51;81.97
70300;HTU21D;57704;51.112;5.878;2023-07-29T04:01:49;19.52;81.91
70300;HTU21D;57704;51.112;5.878;2023-07-29T04:04:15;19.52;81.88
70300;HTU21D;57704;51.112;5.878;2023-07-29T04:06:41;19.56;81.75
70300;HTU21D;57704;51.112;5.878;2023-07-29T04:09:07;19.57;81.57
70300;HTU21D;57704;51.112;5.878;2023-07-29T04:11:34;19.55;81.39
70300;HTU21D;57704;51.112;5.878;2023-07-29T04:14:00;19.55;81.33
70300;HTU21D;57704;51.112;5.878;2023-07-29T04:16:26;19.51;81.24
70300;HTU21D;57704;51.112;5.878;2023-07-29T04:18:52;19.48;81.32
70300;HTU21D;57704;51.112;5.878;2023-07-29T04:21:18;19.46;81.13
70300;HTU21D;57704;51.112;5.878;2023-07-29T04:23:44;19.40;81.15
70300;HTU21D;57704;51.112;5.878;2023-07-29T04:26:10;19.37;81.41
70300;HTU21D;57704;51.112;5.878;2023-07-29T04:28:35;19.35;81.46
70300;HTU21D;57704;51.112;5.878;2023-07-29T04:31:04;19.31;81.43
70300;HTU21D;57704;51.112;5.878;2023-07-29T04:33:31;19.31;81.39
70300;HTU21D;57704;51.112;5.878;2023-07-29T04:35:57;19.32;81.23
70300;HTU21D;57704;51.112;5.878;2023-07-29T04:38:30;19.28;81.14
70300;HTU21D;57704;51.112;5.878;2023-07-29T04:40:56;19.27;81.14
70300;HTU21D;57704;51.112;5.878;2023-07-29T04:43:22;19.26;81.06
70300;HTU21D;57704;51.112;5.878;2023-07-29T04:45:48;19.23;80.93
70300;HTU21D;57704;51.112;5.878;2023-07-29T04:48:14;19.23;81.00
70300;HTU21D;57704;51.112;5.878;2023-07-29T04:50:40;19.22;80.81
70300;HTU21D;57704;51.112;5.878;2023-07-29T04:53:08;19.24;80.70
70300;HTU21D;57704;51.112;5.878;2023-07-29T04:55:34;19.23;80.59
70300;HTU21D;57704;51.112;5.878;2023-07-29T04:58:03;19.22;80.43
70300;HTU21D;57704;51.112;5.878;2023-07-29T05:00:29;19.21;80.53
70300;HTU21D;57704;51.112;5.878;2023-07-29T05:02:58;19.26;80.52
70300;HTU21D;57704;51.112;5.878;2023-07-29T05:05:24;19.32;80.48
70300;HTU21D;57704;51.112;5.878;2023-07-29T05:07:53;19.39;80.40
70300;HTU21D;57704;51.112;5.878;2023-07-29T05:10:19;19.42;80.21
70300;HTU21D;57704;51.112;5.878;2023-07-29T05:12:49;19.44;80.14
70300;HTU21D;57704;51.112;5.878;2023-07-29T05:15:17;19.47;80.11
70300;HTU21D;57704;51.112;5.878;2023-07-29T05:17:44;19.52;80.10
70300;HTU21D;57704;51.112;5.878;2023-07-29T05:20:10;19.55;79.88
70300;HTU21D;57704;51.112;5.878;2023-07-29T05:22:37;19.55;79.99
70300;HTU21D;57704;51.112;5.878;2023-07-29T05:25:03;19.60;80.18
70300;HTU21D;57704;51.112;5.878;2023-07-29T05:27:34;19.67;79.93
70300;HTU21D;57704;51.112;5.878;2023-07-29T05:30:00;19.66;79.88
70300;HTU21D;57704;51.112;5.878;2023-07-29T05:32:26;19.60;79.91
70300;HTU21D;57704;51.112;5.878;2023-07-29T05:34:53;19.57;80.03
70300;HTU21D;57704;51.112;5.878;2023-07-29T05:37:21;19.52;80.17
70300;HTU21D;57704;51.112;5.878;2023-07-29T05:39:47;19.53;80.40
70300;HTU21D;57704;51.112;5.878;2023-07-29T05:42:16;19.58;80.39
70300;HTU21D;57704;51.112;5.878;2023-07-29T05:44:43;19.62;80.07
70300;HTU21D;57704;51.112;5.878;2023-07-29T05:47:09;19.62;80.05
70300;HTU21D;57704;51.112;5.878;2023-07-29T05:49:35;19.66;79.97
70300;HTU21D;57704;51.112;5.878;2023-07-29T05:52:01;19.68;79.87
70300;HTU21D;57704;51.112;5.878;2023-07-29T05:54:27;19.68;79.85
70300;HTU21D;57704;51.112;5.878;2023-07-29T05:56:53;19.69;79.90
70300;HTU21D;57704;51.112;5.878;2023-07-29T05:59:19;19.74;79.82
70300;HTU21D;57704;51.112;5.878;2023-07-29T06:01:49;19.82;79.85
70300;HTU21D;57704;51.112;5.878;2023-07-29T06:04:15;19.90;79.59
70300;HTU21D;57704;51.112;5.878;2023-07-29T06:06:44;19.98;79.52
70300;HTU21D;57704;51.112;5.878;2023-07-29T06:09:10;20.06;79.46
70300;HTU21D;57704;51.112;5.878;2023-07-29T06:11:46;20.07;79.11
70300;HTU21D;57704;51.112;5.878;2023-07-29T06:14:14;20.11;79.27
70300;HTU21D;57704;51.112;5.878;2023-07-29T06:16:45;20.18;79.11
70300;HTU21D;57704;51.112;5.878;2023-07-29T06:19:13;20.21;78.79
70300;HTU21D;57704;51.112;5.878;2023-07-29T06:21:43;20.22;78.52
70300;HTU21D;57704;51.112;5.878;2023-07-29T06:24:09;20.22;78.77
70300;HTU21D;57704;51.112;5.878;2023-07-29T06:26:37;20.24;78.86
70300;HTU21D;57704;51.112;5.878;2023-07-29T06:29:06;20.32;79.17
70300;HTU21D;57704;51.112;5.878;2023-07-29T06:31:32;20.48;78.83
70300;HTU21D;57704;51.112;5.878;2023-07-29T06:34:00;20.66;78.72
70300;HTU21D;57704;51.112;5.878;2023-07-29T06:36:28;20.86;77.91
70300;HTU21D;57704;51.112;5.878;2023-07-29T06:39:02;20.92;77.15
70300;HTU21D;57704;51.112;5.878;2023-07-29T06:41:28;20.93;76.84
70300;HTU21D;57704;51.112;5.878;2023-07-29T06:43:54;20.94;76.59
70300;HTU21D;57704;51.112;5.878;2023-07-29T06:46:22;20.89;76.13
70300;HTU21D;57704;51.112;5.878;2023-07-29T06:48:53;20.80;76.48
70300;HTU21D;57704;51.112;5.878;2023-07-29T06:51:21;20.76;76.70
70300;HTU21D;57704;51.112;5.878;2023-07-29T06:53:47;20.79;76.74
70300;HTU21D;57704;51.112;5.878;2023-07-29T06:56:14;20.79;76.50
70300;HTU21D;57704;51.112;5.878;2023-07-29T06:58:40;20.75;76.83
70300;HTU21D;57704;51.112;5.878;2023-07-29T07:01:06;20.91;76.95
70300;HTU21D;57704;51.112;5.878;2023-07-29T07:03:31;21.10;76.73
70300;HTU21D;57704;51.112;5.878;2023-07-29T07:05:58;21.27;76.49
70300;HTU21D;57704;51.112;5.878;2023-07-29T07:08:24;21.48;76.35
70300;HTU21D;57704;51.112;5.878;2023-07-29T07:10:50;21.67;75.89
70300;HTU21D;57704;51.112;5.878;2023-07-29T07:13:19;21.90;75.80
70300;HTU21D;57704;51.112;5.878;2023-07-29T07:15:45;21.99;75.30
70300;HTU21D;57704;51.112;5.878;2023-07-29T07:18:11;22.14;75.41
70300;HTU21D;57704;51.112;5.878;2023-07-29T07:20:38;22.35;75.78
70300;HTU21D;57704;51.112;5.878;2023-07-29T07:23:06;22.65;75.81
70300;HTU21D;57704;51.112;5.878;2023-07-29T07:25:36;22.94;75.66
70300;HTU21D;57704;51.112;5.878;2023-07-29T07:28:02;23.03;74.54
70300;HTU21D;57704;51.112;5.878;2023-07-29T07:30:28;23.11;74.89
70300;HTU21D;57704;51.112;5.878;2023-07-29T07:32:55;23.25;75.29
70300;HTU21D;57704;51.112;5.878;2023-07-29T07:35:23;23.49;75.40
70300;HTU21D;57704;51.112;5.878;2023-07-29T07:37:52;23.81;74.83
70300;HTU21D;57704;51.112;5.878;2023-07-29T07:40:20;24.24;73.82
70300;HTU21D;57704;51.112;5.878;2023-07-29T07:42:46;24.57;71.31
70300;HTU21D;57704;51.112;5.878;2023-07-29T07:45:15;24.84;70.31
70300;HTU21D;57704;51.112;5.878;2023-07-29T07:47:46;25.01;69.54
70300;HTU21D;57704;51.112;5.878;2023-07-29T07:50:12;25.25;68.67
70300;HTU21D;57704;51.112;5.878;2023-07-29T07:52:39;25.54;66.20
70300;HTU21D;57704;51.112;5.878;2023-07-29T07:55:05;25.86;66.29
70300;HTU21D;57704;51.112;5.878;2023-07-29T07:57:32;26.34;65.82
70300;HTU21D;57704;51.112;5.878;2023-07-29T07:59:57;26.65;63.60
70300;HTU21D;57704;51.112;5.878;2023-07-29T08:02:23;26.87;62.53
70300;HTU21D;57704;51.112;5.878;2023-07-29T08:04:49;27.10;60.56
70300;HTU21D;57704;51.112;5.878;2023-07-29T08:07:15;27.30;60.51
70300;HTU21D;57704;51.112;5.878;2023-07-29T08:09:41;27.34;58.46
70300;HTU21D;57704;51.112;5.878;2023-07-29T08:12:07;26.97;57.90
70300;HTU21D;57704;51.112;5.878;2023-07-29T08:14:33;26.54;59.32
70300;HTU21D;57704;51.112;5.878;2023-07-29T08:16:59;26.34;59.14
70300;HTU21D;57704;51.112;5.878;2023-07-29T08:19:27;26.15;59.10
70300;HTU21D;57704;51.112;5.878;2023-07-29T08:21:53;25.93;59.71
70300;HTU21D;57704;51.112;5.878;2023-07-29T08:24:19;25.98;60.78
70300;HTU21D;57704;51.112;5.878;2023-07-29T08:26:44;26.40;59.22
70300;HTU21D;57704;51.112;5.878;2023-07-29T08:29:13;26.64;58.65
70300;HTU21D;57704;51.112;5.878;2023-07-29T08:31:45;26.79;57.58
70300;HTU21D;57704;51.112;5.878;2023-07-29T08:34:11;26.67;56.55
70300;HTU21D;57704;51.112;5.878;2023-07-29T08:36:40;26.39;55.90
70300;HTU21D;57704;51.112;5.878;2023-07-29T08:39:11;25.92;57.62
70300;HTU21D;57704;51.112;5.878;2023-07-29T08:41:54;25.56;58.02
70300;HTU21D;57704;51.112;5.878;2023-07-29T08:44:23;25.19;58.53
70300;HTU21D;57704;51.112;5.878;2023-07-29T08:49:28;24.71;59.70
70300;HTU21D;57704;51.112;5.878;2023-07-29T08:52:01;24.57;59.78
70300;HTU21D;57704;51.112;5.878;2023-07-29T08:54:27;24.50;60.16
70300;HTU21D;57704;51.112;5.878;2023-07-29T08:56:53;24.50;60.31
70300;HTU21D;57704;51.112;5.878;2023-07-29T08:59:20;24.57;59.99
70300;HTU21D;57704;51.112;5.878;2023-07-29T09:01:54;24.46;59.92
70300;HTU21D;57704;51.112;5.878;2023-07-29T09:04:28;24.48;59.89
70300;HTU21D;57704;51.112;5.878;2023-07-29T09:06:59;24.34;59.52
70300;HTU21D;57704;51.112;5.878;2023-07-29T09:09:33;24.25;60.22
70300;HTU21D;57704;51.112;5.878;2023-07-29T09:11:59;24.26;60.23
70300;HTU21D;57704;51.112;5.878;2023-07-29T09:14:30;24.44;60.16
70300;HTU21D;57704;51.112;5.878;2023-07-29T09:16:57;24.75;59.44
70300;HTU21D;57704;51.112;5.878;2023-07-29T09:19:26;25.03;58.80
70300;HTU21D;57704;51.112;5.878;2023-07-29T09:21:54;25.29;58.48
70300;HTU21D;57704;51.112;5.878;2023-07-29T09:24:20;25.48;57.71
70300;HTU21D;57704;51.112;5.878;2023-07-29T09:26:50;25.78;56.64
70300;HTU21D;57704;51.112;5.878;2023-07-29T09:29:28;26.13;56.96
70300;HTU21D;57704;51.112;5.878;2023-07-29T09:31:54;26.49;56.21
70300;HTU21D;57704;51.112;5.878;2023-07-29T09:34:20;26.69;54.91
70300;HTU21D;57704;51.112;5.878;2023-07-29T09:36:50;27.05;54.36
70300;HTU21D;57704;51.112;5.878;2023-07-29T09:39:17;27.29;54.04
70300;HTU21D;57704;51.112;5.878;2023-07-29T09:41:47;27.45;53.07
70300;HTU21D;57704;51.112;5.878;2023-07-29T09:44:17;27.71;53.27
70300;HTU21D;57704;51.112;5.878;2023-07-29T09:46:46;27.83;51.98
70300;HTU21D;57704;51.112;5.878;2023-07-29T09:49:14;27.75;52.53
70300;HTU21D;57704;51.112;5.878;2023-07-29T09:51:45;27.69;52.29
70300;HTU21D;57704;51.112;5.878;2023-07-29T09:54:12;27.76;52.40
70300;HTU21D;57704;51.112;5.878;2023-07-29T09:56:45;27.94;51.50
70300;HTU21D;57704;51.112;5.878;2023-07-29T09:59:11;28.00;51.79
70300;HTU21D;57704;51.112;5.878;2023-07-29T10:01:46;27.89;51.50
70300;HTU21D;57704;51.112;5.878;2023-07-29T10:04:13;27.54;52.05
70300;HTU21D;57704;51.112;5.878;2023-07-29T10:06:45;27.05;52.62
70300;HTU21D;57704;51.112;5.878;2023-07-29T10:09:13;26.78;53.62
70300;HTU21D;57704;51.112;5.878;2023-07-29T10:11:41;26.65;53.10
70300;HTU21D;57704;51.112;5.878;2023-07-29T10:14:08;26.51;53.93
70300;HTU21D;57704;51.112;5.878;2023-07-29T10:16:36;26.37;54.17
70300;HTU21D;57704;51.112;5.878;2023-07-29T10:19:15;26.17;54.24
70300;HTU21D;57704;51.112;5.878;2023-07-29T10:21:48;26.08;54.48
70300;HTU21D;57704;51.112;5.878;2023-07-29T10:24:25;26.12;54.82
70300;HTU21D;57704;51.112;5.878;2023-07-29T10:26:58;26.22;54.59
70300;HTU21D;57704;51.112;5.878;2023-07-29T10:29:30;26.47;54.28
70300;HTU21D;57704;51.112;5.878;2023-07-29T10:32:01;26.61;53.37
70300;HTU21D;57704;51.112;5.878;2023-07-29T10:34:30;26.68;53.43
70300;HTU21D;57704;51.112;5.878;2023-07-29T10:37:04;26.91;53.05
70300;HTU21D;57704;51.112;5.878;2023-07-29T10:39:41;27.14;52.99
70300;HTU21D;57704;51.112;5.878;2023-07-29T10:42:17;27.72;51.77
70300;HTU21D;57704;51.112;5.878;2023-07-29T10:44:47;28.04;50.34
70300;HTU21D;57704;51.112;5.878;2023-07-29T10:47:29;28.09;50.09
70300;HTU21D;57704;51.112;5.878;2023-07-29T10:49:59;27.84;49.79
70300;HTU21D;57704;51.112;5.878;2023-07-29T10:52:40;27.56;50.52
70300;HTU21D;57704;51.112;5.878;2023-07-29T10:55:33;27.24;51.17
70300;HTU21D;57704;51.112;5.878;2023-07-29T10:58:16;27.10;51.87
70300;HTU21D;57704;51.112;5.878;2023-07-29T11:00:49;27.22;51.70
70300;HTU21D;57704;51.112;5.878;2023-07-29T11:03:15;27.15;51.45
70300;HTU21D;57704;51.112;5.878;2023-07-29T11:08:18;27.20;51.65
70300;HTU21D;57704;51.112;5.878;2023-07-29T11:10:58;27.38;51.24
70300;HTU21D;57704;51.112;5.878;2023-07-29T11:13:26;27.67;51.13
70300;HTU21D;57704;51.112;5.878;2023-07-29T11:15:54;27.76;49.63
70300;HTU21D;57704;51.112;5.878;2023-07-29T11:18:21;27.94;49.72
70300;HTU21D;57704;51.112;5.878;2023-07-29T11:20:47;28.26;49.27
70300;HTU21D;57704;51.112;5.878;2023-07-29T11:23:14;28.61;48.15
70300;HTU21D;57704;51.112;5.878;2023-07-29T11:25:40;28.88;47.41
70300;HTU21D;57704;51.112;5.878;2023-07-29T11:28:09;29.00;47.35
70300;HTU21D;57704;51.112;5.878;2023-07-29T11:30:39;28.60;47.89
70300;HTU21D;57704;51.112;5.878;2023-07-29T11:33:05;28.17;48.80
70300;HTU21D;57704;51.112;5.878;2023-07-29T11:35:32;27.66;49.89
70300;HTU21D;57704;51.112;5.878;2023-07-29T11:37:58;27.57;51.21
70300;HTU21D;57704;51.112;5.878;2023-07-29T11:40:24;28.37;50.37
70300;HTU21D;57704;51.112;5.878;2023-07-29T11:42:52;29.61;47.93
70300;HTU21D;57704;51.112;5.878;2023-07-29T11:45:21;30.69;44.60
70300;HTU21D;57704;51.112;5.878;2023-07-29T11:47:49;30.51;44.58
70300;HTU21D;57704;51.112;5.878;2023-07-29T11:50:18;29.77;45.99
70300;HTU21D;57704;51.112;5.878;2023-07-29T11:52:46;29.04;47.15
70300;HTU21D;57704;51.112;5.878;2023-07-29T11:55:14;28.40;48.51
70300;HTU21D;57704;51.112;5.878;2023-07-29T11:57:42;27.98;49.65
70300;HTU21D;57704;51.112;5.878;2023-07-29T12:00:11;27.75;50.82
70300;HTU21D;57704;51.112;5.878;2023-07-29T12:02:39;27.40;52.18
70300;HTU21D;57704;51.112;5.878;2023-07-29T12:05:08;27.23;53.24
70300;HTU21D;57704;51.112;5.878;2023-07-29T12:07:35;27.11;53.20
70300;HTU21D;57704;51.112;5.878;2023-07-29T12:10:05;26.81;53.68
70300;HTU21D;57704;51.112;5.878;2023-07-29T12:12:31;26.47;54.58
70300;HTU21D;57704;51.112;5.878;2023-07-29T12:14:56;26.19;55.13
70300;HTU21D;57704;51.112;5.878;2023-07-29T12:17:22;26.11;55.58
70300;HTU21D;57704;51.112;5.878;2023-07-29T12:19:49;26.23;55.02
70300;HTU21D;57704;51.112;5.878;2023-07-29T12:22:18;26.31;54.55
70300;HTU21D;57704;51.112;5.878;2023-07-29T12:24:45;26.21;54.70
70300;HTU21D;57704;51.112;5.878;2023-07-29T12:27:13;26.05;54.95
70300;HTU21D;57704;51.112;5.878;2023-07-29T12:29:44;25.89;56.28
70300;HTU21D;57704;51.112;5.878;2023-07-29T12:32:12;25.83;56.47
70300;HTU21D;57704;51.112;5.878;2023-07-29T12:34:40;25.78;56.85
70300;HTU21D;57704;51.112;5.878;2023-07-29T12:37:08;25.81;56.70
70300;HTU21D;57704;51.112;5.878;2023-07-29T12:39:40;25.76;56.48
70300;HTU21D;57704;51.112;5.878;2023-07-29T12:42:10;25.65;56.67
70300;HTU21D;57704;51.112;5.878;2023-07-29T12:44:37;25.57;56.89
70300;HTU21D;57704;51.112;5.878;2023-07-29T12:47:05;25.39;56.76
70300;HTU21D;57704;51.112;5.878;2023-07-29T12:49:32;25.20;57.26
70300;HTU21D;57704;51.112;5.878;2023-07-29T12:52:00;25.14;57.27
70300;HTU21D;57704;51.112;5.878;2023-07-29T12:54:26;25.03;57.61
70300;HTU21D;57704;51.112;5.878;2023-07-29T12:56:52;25.06;57.56
70300;HTU21D;57704;51.112;5.878;2023-07-29T12:59:18;25.04;57.51
70300;HTU21D;57704;51.112;5.878;2023-07-29T13:01:44;24.90;57.77
70300;HTU21D;57704;51.112;5.878;2023-07-29T13:04:15;24.74;58.32
70300;HTU21D;57704;51.112;5.878;2023-07-29T13:06:41;24.72;58.81
70300;HTU21D;57704;51.112;5.878;2023-07-29T13:09:07;24.84;58.51
70300;HTU21D;57704;51.112;5.878;2023-07-29T13:11:33;24.89;58.77
70300;HTU21D;57704;51.112;5.878;2023-07-29T13:14:01;24.94;58.49
70300;HTU21D;57704;51.112;5.878;2023-07-29T13:16:28;24.84;58.85
70300;HTU21D;57704;51.112;5.878;2023-07-29T13:18:54;24.64;59.01
70300;HTU21D;57704;51.112;5.878;2023-07-29T13:22:01;23.95;62.31
70300;HTU21D;57704;51.112;5.878;2023-07-29T13:24:30;22.82;65.92
70300;HTU21D;57704;51.112;5.878;2023-07-29T13:26:58;22.03;69.42
70300;HTU21D;57704;51.112;5.878;2023-07-29T13:29:24;21.47;71.12
70300;HTU21D;57704;51.112;5.878;2023-07-29T13:31:52;21.31;73.68
70300;HTU21D;57704;51.112;5.878;2023-07-29T13:34:26;21.23;75.00
70300;HTU21D;57704;51.112;5.878;2023-07-29T13:46:26;21.54;76.09
70300;HTU21D;57704;51.112;5.878;2023-07-29T14:08:17;21.59;78.12
70300;HTU21D;57704;51.112;5.878;2023-07-29T14:11:30;22.06;78.67
70300;HTU21D;57704;51.112;5.878;2023-07-29T14:13:56;22.25;77.66
70300;HTU21D;57704;51.112;5.878;2023-07-29T14:16:22;22.41;77.14
70300;HTU21D;57704;51.112;5.878;2023-07-29T14:18:48;22.36;77.18
70300;HTU21D;57704;51.112;5.878;2023-07-29T14:21:13;22.38;77.35
70300;HTU21D;57704;51.112;5.878;2023-07-29T14:23:39;22.50;78.40
70300;HTU21D;57704;51.112;5.878;2023-07-29T14:26:05;22.60;77.25
70300;HTU21D;57704;51.112;5.878;2023-07-29T14:28:30;22.53;76.77
70300;HTU21D;57704;51.112;5.878;2023-07-29T14:30:56;22.49;77.36
70300;HTU21D;57704;51.112;5.878;2023-07-29T14:33:22;22.55;77.36
70300;HTU21D;57704;51.112;5.878;2023-07-29T14:35:48;22.67;77.59
70300;HTU21D;57704;51.112;5.878;2023-07-29T14:38:14;22.85;77.48
70300;HTU21D;57704;51.112;5.878;2023-07-29T14:40:39;23.03;77.57
70300;HTU21D;57704;51.112;5.878;2023-07-29T14:43:05;23.28;77.44
70300;HTU21D;57704;51.112;5.878;2023-07-29T14:45:31;23.49;76.63
70300;HTU21D;57704;51.112;5.878;2023-07-29T14:47:57;23.46;76.12
70300;HTU21D;57704;51.112;5.878;2023-07-29T14:50:22;23.45;76.01
70300;HTU21D;57704;51.112;5.878;2023-07-29T14:52:48;23.51;76.75
70300;HTU21D;57704;51.112;5.878;2023-07-29T14:55:14;23.64;76.61
70300;HTU21D;57704;51.112;5.878;2023-07-29T14:57:40;23.74;75.98
70300;HTU21D;57704;51.112;5.878;2023-07-29T15:00:07;23.85;75.86
70300;HTU21D;57704;51.112;5.878;2023-07-29T15:02:33;23.98;75.73
70300;HTU21D;57704;51.112;5.878;2023-07-29T15:04:58;24.21;75.21
70300;HTU21D;57704;51.112;5.878;2023-07-29T15:07:24;24.30;74.41
70300;HTU21D;57704;51.112;5.878;2023-07-29T15:09:50;24.13;74.09
70300;HTU21D;57704;51.112;5.878;2023-07-29T15:12:15;23.98;75.70
70300;HTU21D;57704;51.112;5.878;2023-07-29T15:14:41;24.25;75.34
70300;HTU21D;57704;51.112;5.878;2023-07-29T15:17:07;24.53;75.61
70300;HTU21D;57704;51.112;5.878;2023-07-29T15:19:33;24.78;74.38
70300;HTU21D;57704;51.112;5.878;2023-07-29T15:21:59;24.89;73.72
70300;HTU21D;57704;51.112;5.878;2023-07-29T15:24:24;24.97;73.00
70300;HTU21D;57704;51.112;5.878;2023-07-29T15:26:50;24.86;72.48
70300;HTU21D;57704;51.112;5.878;2023-07-29T15:29:16;24.73;73.07
70300;HTU21D;57704;51.112;5.878;2023-07-29T15:31:42;24.64;73.66
70300;HTU21D;57704;51.112;5.878;2023-07-29T15:34:07;24.61;72.48
70300;HTU21D;57704;51.112;5.878;2023-07-29T15:36:33;24.53;73.46
70300;HTU21D;57704;51.112;5.878;2023-07-29T15:38:59;24.53;73.17
70300;HTU21D;57704;51.112;5.878;2023-07-29T15:41:25;24.62;73.28
70300;HTU21D;57704;51.112;5.878;2023-07-29T15:43:51;24.70;72.56
70300;HTU21D;57704;51.112;5.878;2023-07-29T15:46:16;24.87;72.84
70300;HTU21D;57704;51.112;5.878;2023-07-29T15:48:43;25.02;71.75
70300;HTU21D;57704;51.112;5.878;2023-07-29T15:51:09;24.98;71.24
70300;HTU21D;57704;51.112;5.878;2023-07-29T15:53:35;24.85;71.29
70300;HTU21D;57704;51.112;5.878;2023-07-29T15:56:00;24.71;71.81
70300;HTU21D;57704;51.112;5.878;2023-07-29T15:58:26;24.69;72.23
70300;HTU21D;57704;51.112;5.878;2023-07-29T16:00:52;24.66;71.96